Time;durP1;ratioP1;P1;durP2;ratioP2;P2;SDS_P1;SDS_P2;PMS_P1;PMS_P2;Temp;Humidity;BMP_temperature;BMP_pressure;BME280_temperature;BME280_humidity;BME280_pressure;Samples;Min_cycle;Max_cycle;Signal;HPM_P1;HPM_P2
2021/05/12 00:01:13;;;;;;;2.03;1.40;;;;;;;;;;5015619;28;20032;-58
2021/05/12 00:03:40;;;;;;;2.40;1.50;;;;;;;;;;5033833;28;20357;-58
2021/05/12 00:06:06;;;;;;;2.72;1.70;;;;;;;;;;5034546;28;20039;-58
2021/05/12 00:08:32;;;;;;;2.13;1.40;;;;;;;;;;5034172;28;20017;-58
2021/05/12 00:10:58;;;;;;;2.55;1.48;;;;;;;;;;5034086;28;20026;-58
2021/05/12 00:13:24;;;;;;;2.75;1.73;;;;;;;;;;5033601;28;20028;-58
2021/05/12 00:15:50;;;;;;;2.47;1.58;;;;;;;;;;5033211;28;20032;-58
2021/05/12 00:18:25;;;;;;;2.33;1.50;;;;;;;;;;5015497;28;20088;-58
2021/05/12 00:20:51;;;;;;;3.30;1.60;;;;;;;;;;5033206;28;20034;-58
2021/05/12 00:23:21;;;;;;;2.58;1.80;;;;;;;;;;5033179;28;20025;-58
2021/05/12 00:25:49;;;;;;;2.13;1.63;;;;;;;;;;5047941;28;20064;-58
2021/05/12 00:28:19;;;;;;;2.30;1.25;;;;;;;;;;5032866;28;20052;-58
2021/05/12 00:30:45;;;;;;;2.95;1.75;;;;;;;;;;5015534;28;20400;-58
2021/05/12 00:33:13;;;;;;;2.28;1.40;;;;;;;;;;5032995;28;20017;-58
2021/05/12 00:35:39;;;;;;;2.22;1.52;;;;;;;;;;5033145;28;20037;-58
2021/05/12 00:38:05;;;;;;;6.40;1.75;;;;;;;;;;5015308;28;20463;-58
2021/05/12 00:40:31;;;;;;;1.90;1.17;;;;;;;;;;5032757;28;20463;-58
2021/05/12 00:43:00;;;;;;;3.40;2.38;;;;;;;;;;5016279;28;20033;-58
2021/05/12 00:45:29;;;;;;;2.42;1.77;;;;;;;;;;5032654;28;20042;-58
2021/05/12 00:48:01;;;;;;;3.08;2.33;;;;;;;;;;5032880;28;20468;-58
2021/05/12 00:50:29;;;;;;;2.75;1.52;;;;;;;;;;5032733;28;20029;-58
2021/05/12 00:52:55;;;;;;;4.32;2.20;;;;;;;;;;5014933;28;20136;-58
2021/05/12 00:55:22;;;;;;;2.85;1.63;;;;;;;;;;5032460;28;20456;-58
2021/05/12 00:57:51;;;;;;;3.60;1.40;;;;;;;;;;5032888;28;20037;-58
2021/05/12 01:00:18;;;;;;;1.17;0.70;;;;;;;;;;5032994;28;20108;-58
2021/05/12 01:02:44;;;;;;;3.17;1.15;;;;;;;;;;5033542;28;20068;-58
2021/05/12 01:05:20;;;;;;;2.50;1.40;;;;;;;;;;5032163;28;20041;-58
2021/05/12 01:07:49;;;;;;;1.80;1.27;;;;;;;;;;5032405;28;20428;-58
2021/05/12 01:10:15;;;;;;;2.40;1.50;;;;;;;;;;5047741;28;20116;-58
2021/05/12 01:12:44;;;;;;;4.10;1.55;;;;;;;;;;5048657;28;20068;-57
2021/05/12 01:15:12;;;;;;;2.38;1.30;;;;;;;;;;5036419;28;20044;-58
2021/05/12 01:17:39;;;;;;;4.18;2.83;;;;;;;;;;5036835;28;20057;-56
2021/05/12 01:20:09;;;;;;;4.00;1.23;;;;;;;;;;5036773;28;20030;-57
2021/05/12 01:22:38;;;;;;;3.75;1.05;;;;;;;;;;5035976;28;20064;-57
2021/05/12 01:25:07;;;;;;;2.13;1.42;;;;;;;;;;5018233;28;20057;-55
2021/05/12 01:27:36;;;;;;;1.98;1.05;;;;;;;;;;5018265;28;20372;-55
2021/05/12 01:30:06;;;;;;;2.17;1.33;;;;;;;;;;5036160;28;20071;-57
2021/05/12 01:32:36;;;;;;;2.35;0.73;;;;;;;;;;5036617;28;20021;-57
2021/05/12 01:35:07;;;;;;;1.38;0.82;;;;;;;;;;5036246;28;20033;-57
2021/05/12 01:37:35;;;;;;;;;;;;;;;;;;5036451;28;20084;-57
2021/05/12 01:40:01;;;;;;;3.92;1.50;;;;;;;;;;5034484;28;19928;-57
2021/05/12 01:42:33;;;;;;;2.20;1.15;;;;;;;;;;5033426;28;20037;-57
2021/05/12 01:45:06;;;;;;;1.58;1.02;;;;;;;;;;5035654;28;20529;-57
2021/05/12 01:47:32;;;;;;;1.60;1.00;;;;;;;;;;5017948;28;20139;-56
2021/05/12 01:50:04;;;;;;;1.42;0.95;;;;;;;;;;5035729;28;20032;-57
2021/05/12 01:52:30;;;;;;;0.82;0.55;;;;;;;;;;5036424;28;20033;-56
2021/05/12 01:54:56;;;;;;;1.40;0.90;;;;;;;;;;5033811;28;20045;-57
2021/05/12 01:57:22;;;;;;;2.22;1.38;;;;;;;;;;5035892;28;20037;-57
2021/05/12 01:59:49;;;;;;;2.95;2.20;;;;;;;;;;5018129;28;20125;-56
2021/05/12 02:02:15;;;;;;;5.22;1.95;;;;;;;;;;5017496;28;20390;-56
2021/05/12 02:04:41;;;;;;;2.80;1.80;;;;;;;;;;5036005;28;20029;-57
2021/05/12 02:07:14;;;;;;;2.05;1.55;;;;;;;;;;5017630;28;20017;-57
2021/05/12 02:09:43;;;;;;;4.22;2.58;;;;;;;;;;5036241;28;20033;-55
2021/05/12 02:12:09;;;;;;;2.53;1.65;;;;;;;;;;5035349;28;20041;-57
2021/05/12 02:14:37;;;;;;;3.08;2.50;;;;;;;;;;5017098;28;20096;-57
2021/05/12 02:17:04;;;;;;;3.45;2.05;;;;;;;;;;5035514;28;20414;-56
2021/05/12 02:19:33;;;;;;;4.07;2.83;;;;;;;;;;5035630;28;20420;-57
2021/05/12 02:21:59;;;;;;;3.20;2.13;;;;;;;;;;5032563;28;20033;-57
2021/05/12 02:24:31;;;;;;;7.53;2.05;;;;;;;;;;5035441;28;20183;-56
2021/05/12 02:27:00;;;;;;;5.00;2.08;;;;;;;;;;5017307;28;20030;-57
2021/05/12 02:29:29;;;;;;;3.95;2.47;;;;;;;;;;5035073;28;20107;-57
2021/05/12 02:32:04;;;;;;;2.42;1.80;;;;;;;;;;5035236;28;20487;-57
2021/05/12 02:34:30;;;;;;;2.85;2.22;;;;;;;;;;5034497;28;20037;-57
2021/05/12 02:36:56;;;;;;;3.50;2.53;;;;;;;;;;5016740;28;20060;-57
2021/05/12 02:39:22;;;;;;;3.20;1.98;;;;;;;;;;5017295;28;20032;-57
2021/05/12 02:41:50;;;;;;;4.03;2.33;;;;;;;;;;5034836;28;20371;-57
2021/05/12 02:44:20;;;;;;;4.40;2.40;;;;;;;;;;5049559;28;20064;-57
2021/05/12 02:46:46;;;;;;;3.45;2.88;;;;;;;;;;5017364;28;20332;-56
2021/05/12 02:49:12;;;;;;;5.18;2.53;;;;;;;;;;5049114;28;20044;-57
2021/05/12 02:51:39;;;;;;;3.85;2.70;;;;;;;;;;5034245;28;20512;-57
2021/05/12 02:54:05;;;;;;;3.92;3.00;;;;;;;;;;5034489;28;20080;-57
2021/05/12 02:56:31;;;;;;;4.90;2.78;;;;;;;;;;5035047;28;20030;-56
2021/05/12 02:59:00;;;;;;;3.63;2.90;;;;;;;;;;5016455;28;20357;-57
2021/05/12 03:01:26;;;;;;;6.38;3.13;;;;;;;;;;5033435;28;20487;-57
2021/05/12 03:03:58;;;;;;;3.65;3.08;;;;;;;;;;5016300;28;20128;-57
2021/05/12 03:06:24;;;;;;;4.55;3.35;;;;;;;;;;5049632;28;20034;-56
2021/05/12 03:08:50;;;;;;;6.82;3.90;;;;;;;;;;5033252;28;20360;-55
2021/05/12 03:11:19;;;;;;;6.45;4.13;;;;;;;;;;5034564;28;20068;-56
2021/05/12 03:13:45;;;;;;;6.97;4.15;;;;;;;;;;5034365;28;20045;-56
2021/05/12 03:16:12;;;;;;;4.25;3.80;;;;;;;;;;5034589;28;20447;-55
2021/05/12 03:18:41;;;;;;;5.20;4.00;;;;;;;;;;5034550;28;20036;-56
2021/05/12 03:21:07;;;;;;;8.55;3.85;;;;;;;;;;5034151;28;20029;-56
2021/05/12 03:23:35;;;;;;;4.15;3.70;;;;;;;;;;5034324;28;20053;-56
2021/05/12 03:26:02;;;;;;;5.88;4.43;;;;;;;;;;5033954;28;20029;-55
2021/05/12 03:28:28;;;;;;;9.27;4.93;;;;;;;;;;5049611;28;20029;-56
2021/05/12 03:31:05;;;;;;;8.73;4.40;;;;;;;;;;5015883;28;20038;-57
2021/05/12 03:33:31;;;;;;;11.05;5.50;;;;;;;;;;5016059;28;20030;-55
2021/05/12 03:35:57;;;;;;;7.07;5.22;;;;;;;;;;5032778;28;20053;-55
2021/05/12 03:38:24;;;;;;;5.47;4.70;;;;;;;;;;5033664;28;20036;-56
2021/05/12 03:40:58;;;;;;;9.07;6.38;;;;;;;;;;5033392;28;20032;-57
2021/05/12 03:43:27;;;;;;;7.88;5.85;;;;;;;;;;5016584;28;20375;-57
2021/05/12 03:45:53;;;;;;;8.10;6.10;;;;;;;;;;5033754;28;20064;-57
2021/05/12 03:48:32;;;;;;;9.32;6.38;;;;;;;;;;5015017;28;20048;-57
2021/05/12 03:50:58;;;;;;;8.05;6.30;;;;;;;;;;5033379;28;20471;-57
2021/05/12 03:53:28;;;;;;;8.32;6.25;;;;;;;;;;5033299;28;20112;-57
2021/05/12 03:55:54;;;;;;;11.02;7.50;;;;;;;;;;5015694;28;20064;-55
2021/05/12 03:58:23;;;;;;;8.68;6.88;;;;;;;;;;5033944;28;20025;-57
2021/05/12 04:00:49;;;;;;;11.32;7.28;;;;;;;;;;5015738;28;20459;-57
2021/05/12 04:03:15;;;;;;;10.43;6.20;;;;;;;;;;5015394;28;20056;-57
2021/05/12 04:05:41;;;;;;;10.52;7.15;;;;;;;;;;5033448;28;20037;-57
2021/05/12 04:08:10;;;;;;;7.45;6.65;;;;;;;;;;5016098;28;20025;-58
2021/05/12 04:10:37;;;;;;;8.20;6.60;;;;;;;;;;5033405;28;20341;-58
2021/05/12 04:13:06;;;;;;;13.40;7.10;;;;;;;;;;5034153;28;20025;-57
2021/05/12 04:15:34;;;;;;;8.05;7.20;;;;;;;;;;5015792;28;20041;-55
2021/05/12 04:18:06;;;;;;;11.98;7.00;;;;;;;;;;5033585;28;20033;-57
2021/05/12 04:20:33;;;;;;;8.27;7.30;;;;;;;;;;5033854;28;20018;-57
2021/05/12 04:22:59;;;;;;;10.10;7.32;;;;;;;;;;5032882;28;20075;-57
2021/05/12 04:25:30;;;;;;;8.75;7.60;;;;;;;;;;5033300;28;20065;-57
2021/05/12 04:27:56;;;;;;;;;;;;;;;;;;5033669;28;20037;-57
2021/05/12 04:30:23;;;;;;;6.63;5.93;;;;;;;;;;5015570;28;19905;-57
2021/05/12 04:32:58;;;;;;;8.65;7.28;;;;;;;;;;5033981;28;20424;-57
2021/05/12 04:35:31;;;;;;;10.50;6.90;;;;;;;;;;5033501;28;20087;-57
2021/05/12 04:38:04;;;;;;;9.48;6.68;;;;;;;;;;4996923;28;20050;-57
2021/05/12 04:40:33;;;;;;;11.02;8.02;;;;;;;;;;5013732;28;20034;-57
2021/05/12 04:43:05;;;;;;;8.07;6.18;;;;;;;;;;5013405;28;20468;-55
2021/05/12 04:45:31;;;;;;;9.27;6.63;;;;;;;;;;5013147;28;20037;-56
2021/05/12 04:47:57;;;;;;;12.35;6.63;;;;;;;;;;5015875;28;20029;-58
2021/05/12 04:50:25;;;;;;;7.43;6.38;;;;;;;;;;4999232;28;20117;-57
2021/05/12 04:52:51;;;;;;;13.07;7.40;;;;;;;;;;5017312;28;20053;-58
2021/05/12 04:55:17;;;;;;;9.63;6.93;;;;;;;;;;5017202;28;20030;-57
2021/05/12 04:57:46;;;;;;;6.60;5.72;;;;;;;;;;4999893;28;20073;-58
2021/05/12 05:00:14;;;;;;;8.75;6.65;;;;;;;;;;5016849;28;20034;-57
2021/05/12 05:02:42;;;;;;;9.52;6.80;;;;;;;;;;5017850;28;20116;-56
2021/05/12 05:05:10;;;;;;;7.60;5.90;;;;;;;;;;5017038;28;20041;-57
2021/05/12 05:07:36;;;;;;;7.57;6.68;;;;;;;;;;5016876;28;20022;-58
2021/05/12 05:10:08;;;;;;;9.98;6.55;;;;;;;;;;4999691;28;20448;-57
2021/05/12 05:12:34;;;;;;;6.18;4.43;;;;;;;;;;5016554;28;20464;-57
2021/05/12 05:15:01;;;;;;;9.20;6.55;;;;;;;;;;5016695;28;20046;-57
2021/05/12 05:17:30;;;;;;;10.10;6.47;;;;;;;;;;5016211;28;20416;-57
2021/05/12 05:19:57;;;;;;;10.57;5.40;;;;;;;;;;4998877;28;20418;-57
2021/05/12 05:22:28;;;;;;;11.98;8.07;;;;;;;;;;5016408;28;20401;-57
2021/05/12 05:24:54;;;;;;;10.95;7.10;;;;;;;;;;5017200;28;20376;-56
2021/05/12 05:27:23;;;;;;;12.18;7.13;;;;;;;;;;5016165;28;20022;-57
2021/05/12 05:29:53;;;;;;;10.93;6.15;;;;;;;;;;5016614;28;20030;-57
2021/05/12 05:32:22;;;;;;;6.40;5.80;;;;;;;;;;5016414;28;20080;-58
2021/05/12 05:34:49;;;;;;;8.02;5.47;;;;;;;;;;5016292;28;20037;-57
2021/05/12 05:37:17;;;;;;;9.05;5.75;;;;;;;;;;5030828;28;20078;-57
2021/05/12 05:39:44;;;;;;;8.88;4.70;;;;;;;;;;5050925;28;20388;-57
2021/05/12 05:42:16;;;;;;;6.57;5.45;;;;;;;;;;5018264;28;20494;-57
2021/05/12 05:44:42;;;;;;;7.50;4.78;;;;;;;;;;5036138;28;20371;-57
2021/05/12 05:47:11;;;;;;;9.10;6.75;;;;;;;;;;5035780;28;20132;-58
2021/05/12 05:49:40;;;;;;;7.72;5.10;;;;;;;;;;5017649;28;20453;-58
2021/05/12 05:52:07;;;;;;;6.05;4.57;;;;;;;;;;5036115;28;20025;-57
2021/05/12 05:54:34;;;;;;;6.40;5.55;;;;;;;;;;5035462;28;20038;-57
2021/05/12 05:57:05;;;;;;;7.32;4.93;;;;;;;;;;5036433;28;20074;-58
2021/05/12 05:59:36;;;;;;;;;;;;;;;;;;5018275;28;20164;-57
2021/05/12 06:02:07;;;;;;;4.20;3.63;;;;;;;;;;5035771;28;20375;-56
2021/05/12 06:07:29;;;;;;;7.28;4.18;;;;;;;;;;5033394;28;20516;-57
2021/05/12 06:09:57;;;;;;;6.65;4.00;;;;;;;;;;5018424;28;20030;-58
2021/05/12 06:12:24;;;;;;;4.70;3.88;;;;;;;;;;5018099;28;20080;-56
2021/05/12 06:14:51;;;;;;;6.47;4.72;;;;;;;;;;5035883;28;20041;-58
2021/05/12 06:17:19;;;;;;;6.78;3.92;;;;;;;;;;5035361;28;20087;-58
2021/05/12 06:19:45;;;;;;;7.55;3.35;;;;;;;;;;5035128;28;20221;-57
2021/05/12 06:22:11;;;;;;;4.75;3.38;;;;;;;;;;5035114;28;20033;-57
2021/05/12 06:24:41;;;;;;;5.40;3.63;;;;;;;;;;5035154;28;20080;-59
2021/05/12 06:27:09;;;;;;;4.38;3.17;;;;;;;;;;5017600;28;20464;-57
2021/05/12 06:29:36;;;;;;;5.20;3.42;;;;;;;;;;5035860;28;20029;-59
2021/05/12 06:32:02;;;;;;;4.18;3.42;;;;;;;;;;5036401;28;20519;-58
2021/05/12 06:34:30;;;;;;;5.38;3.33;;;;;;;;;;5035372;28;20037;-58
2021/05/12 06:36:57;;;;;;;3.85;2.60;;;;;;;;;;5034974;28;20042;-58
2021/05/12 06:39:28;;;;;;;4.20;3.25;;;;;;;;;;5035379;28;20028;-57
2021/05/12 06:41:55;;;;;;;5.30;3.33;;;;;;;;;;5017829;28;20037;-58
2021/05/12 06:44:33;;;;;;;5.88;3.92;;;;;;;;;;5035475;28;20118;-57
2021/05/12 06:47:01;;;;;;;8.27;4.05;;;;;;;;;;5034837;28;20061;-57
2021/05/12 06:49:30;;;;;;;3.92;2.95;;;;;;;;;;5035148;28;20043;-57
2021/05/12 06:51:58;;;;;;;5.28;3.17;;;;;;;;;;5035522;28;20357;-54
2021/05/12 06:54:36;;;;;;;5.90;4.22;;;;;;;;;;5035030;28;20044;-58
2021/05/12 06:57:02;;;;;;;8.23;3.92;;;;;;;;;;5017530;28;20029;-57
2021/05/12 06:59:30;;;;;;;4.18;3.40;;;;;;;;;;5050023;28;20025;-57
2021/05/12 07:01:59;;;;;;;7.30;3.97;;;;;;;;;;5033322;28;20030;-57
2021/05/12 07:04:35;;;;;;;4.70;2.50;;;;;;;;;;5034804;28;20040;-58
2021/05/12 07:07:17;;;;;;;4.63;3.55;;;;;;;;;;5035008;28;20489;-57
2021/05/12 07:09:46;;;;;;;3.75;2.35;;;;;;;;;;5034431;28;20084;-59
2021/05/12 07:12:22;;;;;;;8.55;3.47;;;;;;;;;;5017211;28;20021;-58
2021/05/12 07:14:51;;;;;;;8.20;3.75;;;;;;;;;;5034651;28;20034;-58
2021/05/12 07:17:20;;;;;;;6.85;3.20;;;;;;;;;;5017055;28;20463;-58
2021/05/12 07:19:52;;;;;;;3.80;3.22;;;;;;;;;;5034435;28;20037;-58
2021/05/12 07:22:21;;;;;;;3.80;2.95;;;;;;;;;;5034728;28;20026;-58
2021/05/12 07:24:50;;;;;;;4.82;3.17;;;;;;;;;;5035284;28;20040;-59
2021/05/12 07:27:17;;;;;;;5.38;3.55;;;;;;;;;;5015969;28;20378;-58
2021/05/12 07:29:46;;;;;;;4.05;2.97;;;;;;;;;;5034064;28;20133;-57
2021/05/12 07:32:13;;;;;;;8.65;3.75;;;;;;;;;;5034088;28;20033;-58
2021/05/12 07:34:39;;;;;;;6.03;3.08;;;;;;;;;;5033271;28;20124;-57
2021/05/12 07:37:08;;;;;;;4.43;2.35;;;;;;;;;;5016379;28;20083;-58
2021/05/12 07:39:37;;;;;;;4.22;2.58;;;;;;;;;;5016880;28;20030;-58
2021/05/12 07:42:06;;;;;;;4.60;3.08;;;;;;;;;;5034787;28;20104;-58
2021/05/12 07:44:35;;;;;;;5.35;3.08;;;;;;;;;;5034137;28;20108;-57
2021/05/12 07:47:07;;;;;;;4.47;2.53;;;;;;;;;;5034131;28;20121;-57
2021/05/12 07:49:42;;;;;;;4.32;2.63;;;;;;;;;;5033842;28;20105;-58
2021/05/12 07:52:15;;;;;;;5.43;3.08;;;;;;;;;;5033963;28;20029;-58
2021/05/12 07:54:42;;;;;;;6.93;3.00;;;;;;;;;;5033911;28;20029;-57
2021/05/12 07:57:11;;;;;;;4.40;2.83;;;;;;;;;;5033931;28;20030;-56
2021/05/12 07:59:37;;;;;;;5.03;2.30;;;;;;;;;;5033843;28;20025;-58
2021/05/12 08:02:12;;;;;;;6.88;2.53;;;;;;;;;;5034683;28;20116;-58
2021/05/12 08:04:41;;;;;;;4.35;2.50;;;;;;;;;;5033572;28;20128;-57
2021/05/12 08:07:07;;;;;;;6.15;2.35;;;;;;;;;;5033745;28;20116;-58
2021/05/12 08:09:36;;;;;;;7.88;3.38;;;;;;;;;;5048841;28;20523;-58
2021/05/12 08:12:02;;;;;;;3.22;2.42;;;;;;;;;;5034881;28;20352;-58
2021/05/12 08:14:31;;;;;;;3.45;2.60;;;;;;;;;;5033922;28;20171;-58
2021/05/12 08:17:04;;;;;;;4.25;2.75;;;;;;;;;;5033721;28;20021;-58
2021/05/12 08:19:35;;;;;;;3.35;2.50;;;;;;;;;;5033574;28;20086;-58
2021/05/12 08:22:10;;;;;;;4.63;3.28;;;;;;;;;;5033087;28;20034;-58
2021/05/12 08:24:43;;;;;;;4.47;2.97;;;;;;;;;;5033040;28;20048;-58
2021/05/12 08:27:19;;;;;;;3.65;2.70;;;;;;;;;;5034362;28;20025;-58
2021/05/12 08:29:48;;;;;;;3.70;2.42;;;;;;;;;;5033644;28;20044;-58
2021/05/12 08:32:20;;;;;;;3.28;2.03;;;;;;;;;;5033488;28;20116;-58
2021/05/12 08:34:52;;;;;;;4.78;2.78;;;;;;;;;;5033234;28;20113;-58
2021/05/12 08:37:25;;;;;;;3.85;2.90;;;;;;;;;;5033044;28;20061;-56
2021/05/12 08:39:54;;;;;;;5.25;2.53;;;;;;;;;;5033350;28;20057;-58
2021/05/12 08:42:23;;;;;;;4.28;2.85;;;;;;;;;;5033625;28;20352;-58
2021/05/12 08:44:50;;;;;;;4.07;3.03;;;;;;;;;;5015671;28;20060;-58
2021/05/12 08:47:17;;;;;;;3.15;2.58;;;;;;;;;;5015404;28;20489;-58
2021/05/12 08:49:44;;;;;;;7.60;3.40;;;;;;;;;;5033195;28;20025;-57
2021/05/12 08:52:11;;;;;;;3.58;2.70;;;;;;;;;;5016208;28;20503;-58
2021/05/12 08:54:47;;;;;;;;;;;;;;;;;;;;;
2021/05/12 08:57:19;;;;;;;3.50;2.67;;;;;;;;;;5033405;28;20375;-58
2021/05/12 08:59:51;;;;;;;9.57;2.47;;;;;;;;;;5033275;28;20029;-58
2021/05/12 09:02:17;;;;;;;4.25;3.10;;;;;;;;;;5033388;28;20029;-57
2021/05/12 09:04:49;;;;;;;10.43;3.50;;;;;;;;;;5031966;28;20112;-58
2021/05/12 09:07:15;;;;;;;4.00;2.25;;;;;;;;;;5033244;28;20057;-58
2021/05/12 09:09:47;;;;;;;6.28;2.67;;;;;;;;;;5033173;28;20036;-57
2021/05/12 09:12:16;;;;;;;4.13;2.08;;;;;;;;;;5033207;28;20075;-58
2021/05/12 09:14:42;;;;;;;4.47;2.40;;;;;;;;;;5035373;28;20047;-58
2021/05/12 09:17:08;;;;;;;4.82;2.42;;;;;;;;;;5052974;28;20056;-59
2021/05/12 09:19:38;;;;;;;6.30;2.40;;;;;;;;;;5052831;28;20036;-59
2021/05/12 09:22:05;;;;;;;7.07;3.23;;;;;;;;;;5053338;28;20078;-59
2021/05/12 09:24:38;;;;;;;4.20;2.08;;;;;;;;;;5034865;28;20087;-58
2021/05/12 09:27:21;;;;;;;3.63;2.22;;;;;;;;;;5053010;28;20021;-58
2021/05/12 09:29:57;;;;;;;6.25;2.55;;;;;;;;;;5034923;28;20017;-56
2021/05/12 09:32:23;;;;;;;3.63;2.30;;;;;;;;;;5052672;28;20052;-58
2021/05/12 09:35:05;;;;;;;2.85;1.85;;;;;;;;;;5069972;28;20041;-58
2021/05/12 09:37:44;;;;;;;7.43;2.55;;;;;;;;;;5056040;28;20044;-59
2021/05/12 09:40:17;;;;;;;4.28;2.60;;;;;;;;;;5056874;28;20082;-58
2021/05/12 09:42:58;;;;;;;2.55;1.95;;;;;;;;;;5038648;28;20106;-59
2021/05/12 09:45:24;;;;;;;;;;;;;;;;;;5056894;28;20048;-58
2021/05/12 09:48:01;;;;;;;3.45;2.33;;;;;;;;;;5056437;28;20266;-58
2021/05/12 09:50:32;;;;;;;8.63;2.30;;;;;;;;;;5057319;28;20025;-59
2021/05/12 09:53:05;;;;;;;6.00;2.03;;;;;;;;;;5056165;28;20029;-58
2021/05/12 09:55:46;;;;;;;2.47;1.98;;;;;;;;;;5056167;28;20497;-59
2021/05/12 09:58:17;;;;;;;4.03;2.80;;;;;;;;;;5055904;28;20021;-59
2021/05/12 10:01:02;;;;;;;4.10;2.53;;;;;;;;;;5071744;28;20025;-59
2021/05/12 10:03:33;;;;;;;3.97;2.35;;;;;;;;;;5069829;28;20447;-59
2021/05/12 10:06:02;;;;;;;5.30;2.70;;;;;;;;;;5056503;28;20028;-59
2021/05/12 10:08:35;;;;;;;6.55;3.33;;;;;;;;;;5055772;28;20025;-59
2021/05/12 10:11:02;;;;;;;3.47;1.73;;;;;;;;;;5055709;28;20103;-59
2021/05/12 10:13:28;;;;;;;3.97;2.33;;;;;;;;;;5055781;28;20115;-59
2021/05/12 10:15:54;;;;;;;6.10;2.55;;;;;;;;;;5055995;28;20029;-59
2021/05/12 10:18:23;;;;;;;3.30;2.05;;;;;;;;;;5055738;28;20044;-59
2021/05/12 10:20:49;;;;;;;4.25;2.33;;;;;;;;;;5055483;28;20058;-59
2021/05/12 10:23:26;;;;;;;2.65;2.13;;;;;;;;;;5055315;28;20336;-59
2021/05/12 10:25:52;;;;;;;3.65;2.13;;;;;;;;;;5056160;28;20074;-59
2021/05/12 10:28:21;;;;;;;4.85;2.53;;;;;;;;;;5055939;28;20464;-59
2021/05/12 10:30:55;;;;;;;6.82;2.88;;;;;;;;;;5056008;28;20434;-59
2021/05/12 10:33:43;;;;;;;5.00;2.50;;;;;;;;;;5055665;28;20478;-59
2021/05/12 10:36:17;;;;;;;2.90;2.55;;;;;;;;;;5055603;28;20055;-58
2021/05/12 10:38:50;;;;;;;7.43;2.90;;;;;;;;;;5055146;28;20036;-59
2021/05/12 10:41:35;;;;;;;6.07;2.63;;;;;;;;;;5055828;28;20051;-59
2021/05/12 10:44:07;;;;;;;3.90;2.75;;;;;;;;;;5055372;28;20024;-58
2021/05/12 10:46:44;;;;;;;7.15;2.72;;;;;;;;;;5055642;28;20028;-59
2021/05/12 10:49:11;;;;;;;4.65;2.03;;;;;;;;;;5055789;28;20424;-59
2021/05/12 10:51:49;;;;;;;4.60;2.38;;;;;;;;;;5054875;28;20029;-58
2021/05/12 10:54:35;;;;;;;9.20;3.20;;;;;;;;;;5055376;28;20052;-57
2021/05/12 10:57:01;;;;;;;3.97;2.38;;;;;;;;;;5055061;28;20072;-59
2021/05/12 10:59:27;;;;;;;6.65;2.38;;;;;;;;;;5054088;28;20128;-59
2021/05/12 11:01:56;;;;;;;3.85;2.28;;;;;;;;;;5055517;28;20067;-59
2021/05/12 11:04:24;;;;;;;3.80;2.33;;;;;;;;;;5054520;28;20033;-59
2021/05/12 11:06:54;;;;;;;6.10;3.10;;;;;;;;;;5036965;28;20025;-59
2021/05/12 11:09:37;;;;;;;2.67;1.85;;;;;;;;;;5054522;28;20028;-59
2021/05/12 11:12:09;;;;;;;3.70;1.80;;;;;;;;;;5054811;28;20391;-59
2021/05/12 11:14:39;;;;;;;4.15;2.58;;;;;;;;;;5054597;28;20032;-59
2021/05/12 11:17:11;;;;;;;3.85;2.13;;;;;;;;;;5055074;28;20025;-59
2021/05/12 11:19:38;;;;;;;5.95;2.45;;;;;;;;;;5054272;28;20107;-58
2021/05/12 11:22:23;;;;;;;4.22;3.33;;;;;;;;;;5036578;28;20127;-59
2021/05/12 11:24:52;;;;;;;3.80;2.05;;;;;;;;;;5036466;28;20528;-58
2021/05/12 11:32:40;;;;;;;5.90;2.00;;;;;;;;;;5069385;28;20037;-59
2021/05/12 11:35:08;;;;;;;5.38;2.00;;;;;;;;;;5054737;28;20052;-58
2021/05/12 11:37:38;;;;;;;4.10;1.90;;;;;;;;;;5054159;28;20052;-59
2021/05/12 11:40:06;;;;;;;4.28;2.40;;;;;;;;;;5054317;28;20259;-59
2021/05/12 11:42:33;;;;;;;6.15;3.13;;;;;;;;;;5054435;28;20024;-59
2021/05/12 11:45:06;;;;;;;3.20;2.15;;;;;;;;;;5054418;28;20028;-59
2021/05/12 11:47:44;;;;;;;3.08;1.80;;;;;;;;;;5054208;28;20096;-58
2021/05/12 11:50:23;;;;;;;4.78;2.38;;;;;;;;;;5035910;28;20025;-59
2021/05/12 11:52:49;;;;;;;3.90;1.80;;;;;;;;;;5054231;28;20021;-59
2021/05/12 11:55:15;;;;;;;3.13;2.13;;;;;;;;;;5053457;28;20037;-59
2021/05/12 11:57:45;;;;;;;4.13;1.88;;;;;;;;;;5053379;28;20035;-59
2021/05/12 12:00:16;;;;;;;3.72;1.90;;;;;;;;;;5053733;28;20070;-60
2021/05/12 12:02:53;;;;;;;3.95;2.80;;;;;;;;;;5054165;28;20057;-59
2021/05/12 12:05:20;;;;;;;3.78;1.95;;;;;;;;;;5069220;28;20039;-58
2021/05/12 12:07:46;;;;;;;4.07;1.80;;;;;;;;;;5036412;28;20032;-59
2021/05/12 12:10:14;;;;;;;5.95;2.15;;;;;;;;;;5069005;28;20459;-59
2021/05/12 12:12:59;;;;;;;5.15;2.67;;;;;;;;;;5036730;28;20083;-59
2021/05/12 12:15:25;;;;;;;4.95;1.98;;;;;;;;;;5053970;28;20037;-59
2021/05/12 12:17:54;;;;;;;5.53;2.33;;;;;;;;;;5053555;28;20539;-59
2021/05/12 12:20:30;;;;;;;3.45;1.65;;;;;;;;;;5053797;28;20024;-59
2021/05/12 12:22:57;;;;;;;4.18;1.55;;;;;;;;;;5035699;28;20352;-59
2021/05/12 12:25:29;;;;;;;3.63;1.95;;;;;;;;;;5036400;28;20371;-59
2021/05/12 12:27:56;;;;;;;3.22;2.03;;;;;;;;;;5053892;28;20025;-59
2021/05/12 12:30:22;;;;;;;5.30;1.70;;;;;;;;;;5053755;28;20033;-59
2021/05/12 12:32:48;;;;;;;3.20;2.22;;;;;;;;;;5053677;28;20027;-60
2021/05/12 12:35:14;;;;;;;3.40;2.25;;;;;;;;;;5053290;28;20467;-59
2021/05/12 12:37:42;;;;;;;3.65;1.85;;;;;;;;;;5035955;28;20135;-59
2021/05/12 12:40:10;;;;;;;2.40;1.60;;;;;;;;;;5054092;28;20029;-59
2021/05/12 12:42:40;;;;;;;3.03;1.70;;;;;;;;;;5034977;28;20127;-59
2021/05/12 12:45:06;;;;;;;5.80;2.33;;;;;;;;;;5053519;28;20108;-60
2021/05/12 12:47:35;;;;;;;3.85;1.70;;;;;;;;;;5053391;28;20024;-59
2021/05/12 12:50:03;;;;;;;3.60;1.45;;;;;;;;;;5052552;28;20044;-59
2021/05/12 12:52:37;;;;;;;4.97;1.90;;;;;;;;;;5052987;28;20146;-59
2021/05/12 12:55:13;;;;;;;2.92;1.33;;;;;;;;;;5034726;28;20029;-59
2021/05/12 12:57:43;;;;;;;7.47;1.90;;;;;;;;;;5052778;28;20048;-59
2021/05/12 13:00:10;;;;;;;4.18;2.03;;;;;;;;;;5052812;28;20486;-59
2021/05/12 13:02:40;;;;;;;4.03;1.75;;;;;;;;;;5035005;28;20036;-59
2021/05/12 13:05:21;;;;;;;5.63;2.25;;;;;;;;;;5034671;28;20033;-59
2021/05/12 13:07:48;;;;;;;4.63;1.50;;;;;;;;;;5034491;28;20026;-59
2021/05/12 13:10:24;;;;;;;3.10;1.70;;;;;;;;;;5056311;28;20355;-59
2021/05/12 13:12:50;;;;;;;5.88;1.63;;;;;;;;;;5071892;28;20036;-59
2021/05/12 13:15:20;;;;;;;2.28;1.27;;;;;;;;;;5055385;28;20474;-59
2021/05/12 13:17:53;;;;;;;1.87;1.20;;;;;;;;;;5071792;28;20423;-59
2021/05/12 13:20:20;;;;;;;3.85;1.67;;;;;;;;;;5056437;28;20056;-59
2021/05/12 13:22:59;;;;;;;7.65;1.92;;;;;;;;;;5056254;28;20033;-59
2021/05/12 13:25:25;;;;;;;2.55;1.35;;;;;;;;;;5038902;28;20378;-60
2021/05/12 13:27:51;;;;;;;2.90;1.70;;;;;;;;;;5038130;28;20029;-60
2021/05/12 13:30:17;;;;;;;3.05;2.03;;;;;;;;;;5055735;28;20462;-59
2021/05/12 13:32:44;;;;;;;5.32;2.67;;;;;;;;;;5056445;28;20409;-59
2021/05/12 13:35:10;;;;;;;3.33;1.77;;;;;;;;;;5070857;28;20060;-60
2021/05/12 13:37:39;;;;;;;3.95;2.10;;;;;;;;;;5056392;28;20077;-59
2021/05/12 13:40:06;;;;;;;2.80;1.38;;;;;;;;;;5056102;28;20037;-59
2021/05/12 13:42:32;;;;;;;2.80;1.75;;;;;;;;;;5038681;28;20378;-59
2021/05/12 13:44:58;;;;;;;4.47;1.85;;;;;;;;;;5038531;28;20171;-59
2021/05/12 13:47:26;;;;;;;6.38;2.15;;;;;;;;;;5056056;28;20060;-59
2021/05/12 13:49:54;;;;;;;3.10;2.00;;;;;;;;;;5055738;28;20107;-59
2021/05/12 13:52:33;;;;;;;5.95;2.17;;;;;;;;;;5038579;28;20040;-59
2021/05/12 13:55:05;;;;;;;3.13;1.85;;;;;;;;;;5055817;28;20434;-59
2021/05/12 13:57:54;;;;;;;2.97;1.58;;;;;;;;;;5038674;28;20082;-59
2021/05/12 14:03:02;;;;;;;2.90;1.85;;;;;;;;;;5056058;28;20059;-59
2021/05/12 14:05:35;;;;;;;5.35;2.60;;;;;;;;;;5037651;28;20111;-59
2021/05/12 14:08:01;;;;;;;5.20;1.63;;;;;;;;;;5038111;28;20028;-59
2021/05/12 14:10:33;;;;;;;6.32;2.05;;;;;;;;;;5055949;28;20041;-59
2021/05/12 14:13:10;;;;;;;3.40;1.70;;;;;;;;;;5037964;28;20044;-59
2021/05/12 14:18:06;;;;;;;2.20;1.40;;;;;;;;;;5055477;28;20040;-60
2021/05/12 14:20:33;;;;;;;4.03;2.17;;;;;;;;;;5037171;28;20166;-59
2021/05/12 14:22:59;;;;;;;3.22;2.25;;;;;;;;;;5055289;28;20108;-59
2021/05/12 14:25:25;;;;;;;2.90;1.98;;;;;;;;;;5070713;28;20111;-59
2021/05/12 14:27:52;;;;;;;5.70;2.08;;;;;;;;;;5055469;28;20067;-59
2021/05/12 14:30:18;;;;;;;7.30;1.95;;;;;;;;;;5055100;28;20029;-59
2021/05/12 14:32:44;;;;;;;3.60;1.73;;;;;;;;;;5055927;28;20029;-58
2021/05/12 14:35:14;;;;;;;3.53;1.73;;;;;;;;;;5054155;28;20044;-57
2021/05/12 14:37:40;;;;;;;2.25;1.20;;;;;;;;;;5054813;28;20057;-57
2021/05/12 14:40:06;;;;;;;3.03;1.20;;;;;;;;;;5037535;28;20024;-58
2021/05/12 14:42:32;;;;;;;4.68;1.40;;;;;;;;;;5055436;28;20090;-60
2021/05/12 14:44:59;;;;;;;5.07;1.55;;;;;;;;;;5054459;28;20098;-59
2021/05/12 14:47:25;;;;;;;2.50;1.48;;;;;;;;;;5036854;28;20029;-59
2021/05/12 14:49:53;;;;;;;1.88;1.35;;;;;;;;;;5054636;28;20024;-60
2021/05/12 15:07:53;;;;;;;5.72;2.10;;;;;;;;;;5054538;28;20560;-59
2021/05/12 15:10:21;;;;;;;5.65;2.22;;;;;;;;;;5036562;28;20032;-59
2021/05/12 15:12:47;;;;;;;3.42;1.83;;;;;;;;;;5036588;28;20028;-60
2021/05/12 15:15:13;;;;;;;5.72;2.10;;;;;;;;;;5053860;28;20466;-59
2021/05/12 15:17:41;;;;;;;2.67;1.85;;;;;;;;;;5054646;28;20418;-59
2021/05/12 15:20:07;;;;;;;5.10;2.15;;;;;;;;;;5054718;28;20025;-60
2021/05/12 15:22:33;;;;;;;3.13;1.77;;;;;;;;;;5035986;28;20036;-59
2021/05/12 15:25:01;;;;;;;3.00;1.67;;;;;;;;;;5069669;28;20474;-59
2021/05/12 15:27:27;;;;;;;9.88;2.42;;;;;;;;;;5035997;28;20120;-59